sensor_id;sensor_type;location;lat;lon;timestamp;temperature;humidity
79760;DHT22;69248;42.138;24.742;2023-05-07T00:00:13;17.00;69.20
79760;DHT22;69248;42.138;24.742;2023-05-07T00:02:42;17.00;69.60
79760;DHT22;69248;42.138;24.742;2023-05-07T00:05:11;16.90;70.50
79760;DHT22;69248;42.138;24.742;2023-05-07T00:07:38;16.90;70.30
79760;DHT22;69248;42.138;24.742;2023-05-07T00:10:07;16.90;70.60
79760;DHT22;69248;42.138;24.742;2023-05-07T00:12:34;16.90;70.50
79760;DHT22;69248;42.138;24.742;2023-05-07T00:15:03;17.00;70.30
79760;DHT22;69248;42.138;24.742;2023-05-07T00:17:31;16.90;70.50
79760;DHT22;69248;42.138;24.742;2023-05-07T00:19:58;17.00;70.30
79760;DHT22;69248;42.138;24.742;2023-05-07T00:22:26;17.00;69.60
79760;DHT22;69248;42.138;24.742;2023-05-07T00:24:53;17.10;69.50
79760;DHT22;69248;42.138;24.742;2023-05-07T00:27:21;17.10;69.40
79760;DHT22;69248;42.138;24.742;2023-05-07T00:29:49;17.10;69.00
79760;DHT22;69248;42.138;24.742;2023-05-07T00:32:16;17.10;69.70
79760;DHT22;69248;42.138;24.742;2023-05-07T00:34:44;17.10;68.20
79760;DHT22;69248;42.138;24.742;2023-05-07T00:37:11;17.10;68.50
79760;DHT22;69248;42.138;24.742;2023-05-07T00:39:39;17.10;68.70
79760;DHT22;69248;42.138;24.742;2023-05-07T00:42:07;17.10;68.50
79760;DHT22;69248;42.138;24.742;2023-05-07T00:44:34;17.20;68.10
79760;DHT22;69248;42.138;24.742;2023-05-07T00:47:03;17.20;68.20
79760;DHT22;69248;42.138;24.742;2023-05-07T00:49:41;17.20;67.40
79760;DHT22;69248;42.138;24.742;2023-05-07T00:52:11;17.20;67.60
79760;DHT22;69248;42.138;24.742;2023-05-07T00:54:39;17.20;67.40
79760;DHT22;69248;42.138;24.742;2023-05-07T00:57:09;17.20;67.20
79760;DHT22;69248;42.138;24.742;2023-05-07T00:59:39;17.20;67.00
79760;DHT22;69248;42.138;24.742;2023-05-07T01:02:07;17.10;66.80
79760;DHT22;69248;42.138;24.742;2023-05-07T01:04:34;17.10;67.00
79760;DHT22;69248;42.138;24.742;2023-05-07T01:07:03;17.00;67.10
79760;DHT22;69248;42.138;24.742;2023-05-07T01:09:31;17.00;66.90
79760;DHT22;69248;42.138;24.742;2023-05-07T01:11:59;17.00;66.90
79760;DHT22;69248;42.138;24.742;2023-05-07T01:14:27;16.90;67.40
79760;DHT22;69248;42.138;24.742;2023-05-07T01:16:56;16.80;67.40
79760;DHT22;69248;42.138;24.742;2023-05-07T01:19:23;16.80;67.50
79760;DHT22;69248;42.138;24.742;2023-05-07T01:21:51;16.80;67.20
79760;DHT22;69248;42.138;24.742;2023-05-07T01:24:20;16.80;67.20
79760;DHT22;69248;42.138;24.742;2023-05-07T01:26:48;16.80;67.60
79760;DHT22;69248;42.138;24.742;2023-05-07T01:29:15;16.80;67.30
79760;DHT22;69248;42.138;24.742;2023-05-07T01:31:43;16.80;67.40
79760;DHT22;69248;42.138;24.742;2023-05-07T01:34:13;16.80;67.40
79760;DHT22;69248;42.138;24.742;2023-05-07T01:36:43;16.70;67.40
79760;DHT22;69248;42.138;24.742;2023-05-07T01:39:12;16.80;68.40
79760;DHT22;69248;42.138;24.742;2023-05-07T01:41:40;16.80;68.20
79760;DHT22;69248;42.138;24.742;2023-05-07T01:44:08;16.80;67.90
79760;DHT22;69248;42.138;24.742;2023-05-07T01:46:37;16.80;67.90
79760;DHT22;69248;42.138;24.742;2023-05-07T01:49:04;16.80;67.50
79760;DHT22;69248;42.138;24.742;2023-05-07T01:51:32;16.80;68.10
79760;DHT22;69248;42.138;24.742;2023-05-07T01:54:00;16.80;68.00
79760;DHT22;69248;42.138;24.742;2023-05-07T01:56:28;16.90;68.00
79760;DHT22;69248;42.138;24.742;2023-05-07T01:58:55;16.80;67.70
79760;DHT22;69248;42.138;24.742;2023-05-07T02:01:23;16.80;67.20
79760;DHT22;69248;42.138;24.742;2023-05-07T02:03:51;16.70;67.00
79760;DHT22;69248;42.138;24.742;2023-05-07T02:06:18;16.70;67.30
79760;DHT22;69248;42.138;24.742;2023-05-07T02:08:46;16.70;67.70
79760;DHT22;69248;42.138;24.742;2023-05-07T02:11:14;16.60;68.40
79760;DHT22;69248;42.138;24.742;2023-05-07T02:13:41;16.60;68.60
79760;DHT22;69248;42.138;24.742;2023-05-07T02:16:09;16.40;69.20
79760;DHT22;69248;42.138;24.742;2023-05-07T02:18:37;16.30;69.50
79760;DHT22;69248;42.138;24.742;2023-05-07T02:21:04;16.20;69.70
79760;DHT22;69248;42.138;24.742;2023-05-07T02:23:32;16.10;70.00
79760;DHT22;69248;42.138;24.742;2023-05-07T02:25:59;16.10;70.70
79760;DHT22;69248;42.138;24.742;2023-05-07T02:28:27;16.10;70.50
79760;DHT22;69248;42.138;24.742;2023-05-07T02:30:54;16.00;70.70
79760;DHT22;69248;42.138;24.742;2023-05-07T02:33:24;16.00;71.10
79760;DHT22;69248;42.138;24.742;2023-05-07T02:35:51;15.90;71.40
79760;DHT22;69248;42.138;24.742;2023-05-07T02:38:19;15.80;72.00
79760;DHT22;69248;42.138;24.742;2023-05-07T02:40:46;15.70;72.00
79760;DHT22;69248;42.138;24.742;2023-05-07T02:43:14;15.70;72.20
79760;DHT22;69248;42.138;24.742;2023-05-07T02:45:42;15.70;72.30
79760;DHT22;69248;42.138;24.742;2023-05-07T02:48:09;15.70;72.70
79760;DHT22;69248;42.138;24.742;2023-05-07T02:50:37;15.60;73.20
79760;DHT22;69248;42.138;24.742;2023-05-07T02:53:04;15.50;73.30
79760;DHT22;69248;42.138;24.742;2023-05-07T02:55:32;15.50;73.70
79760;DHT22;69248;42.138;24.742;2023-05-07T02:57:59;15.50;73.50
79760;DHT22;69248;42.138;24.742;2023-05-07T03:00:27;15.40;74.80
79760;DHT22;69248;42.138;24.742;2023-05-07T03:02:54;15.30;75.80
79760;DHT22;69248;42.138;24.742;2023-05-07T03:05:22;15.30;75.90
79760;DHT22;69248;42.138;24.742;2023-05-07T03:07:49;15.20;76.20
79760;DHT22;69248;42.138;24.742;2023-05-07T03:10:17;15.20;76.50
79760;DHT22;69248;42.138;24.742;2023-05-07T03:12:45;15.10;76.90
79760;DHT22;69248;42.138;24.742;2023-05-07T03:15:12;15.10;77.90
79760;DHT22;69248;42.138;24.742;2023-05-07T03:17:40;15.00;78.00
79760;DHT22;69248;42.138;24.742;2023-05-07T03:20:08;15.00;78.30
79760;DHT22;69248;42.138;24.742;2023-05-07T03:22:36;15.00;78.70
79760;DHT22;69248;42.138;24.742;2023-05-07T03:25:03;14.90;79.90
79760;DHT22;69248;42.138;24.742;2023-05-07T03:27:31;14.80;79.70
79760;DHT22;69248;42.138;24.742;2023-05-07T03:29:59;14.80;80.20
79760;DHT22;69248;42.138;24.742;2023-05-07T03:32:26;14.60;80.40
79760;DHT22;69248;42.138;24.742;2023-05-07T03:34:54;14.70;80.50
79760;DHT22;69248;42.138;24.742;2023-05-07T03:37:22;14.70;80.20
79760;DHT22;69248;42.138;24.742;2023-05-07T03:39:49;14.60;80.60
79760;DHT22;69248;42.138;24.742;2023-05-07T03:42:17;14.40;80.70
79760;DHT22;69248;42.138;24.742;2023-05-07T03:44:44;14.30;81.10
79760;DHT22;69248;42.138;24.742;2023-05-07T03:47:12;14.30;80.90
79760;DHT22;69248;42.138;24.742;2023-05-07T03:49:41;14.30;80.70
79760;DHT22;69248;42.138;24.742;2023-05-07T03:52:09;14.10;81.20
79760;DHT22;69248;42.138;24.742;2023-05-07T03:54:36;14.20;81.00
79760;DHT22;69248;42.138;24.742;2023-05-07T03:57:04;14.20;80.60
79760;DHT22;69248;42.138;24.742;2023-05-07T03:59:31;14.30;80.10
79760;DHT22;69248;42.138;24.742;2023-05-07T04:01:59;14.20;79.80
79760;DHT22;69248;42.138;24.742;2023-05-07T04:04:27;14.20;80.10
79760;DHT22;69248;42.138;24.742;2023-05-07T04:06:56;14.20;80.20
79760;DHT22;69248;42.138;24.742;2023-05-07T04:09:23;14.30;79.70
79760;DHT22;69248;42.138;24.742;2023-05-07T04:11:51;14.30;79.20
79760;DHT22;69248;42.138;24.742;2023-05-07T04:14:19;14.20;79.10
79760;DHT22;69248;42.138;24.742;2023-05-07T04:16:46;14.20;78.80
79760;DHT22;69248;42.138;24.742;2023-05-07T04:19:14;14.20;78.70
79760;DHT22;69248;42.138;24.742;2023-05-07T04:21:41;14.30;78.40
79760;DHT22;69248;42.138;24.742;2023-05-07T04:24:09;14.30;77.80
79760;DHT22;69248;42.138;24.742;2023-05-07T04:26:36;14.40;78.00
79760;DHT22;69248;42.138;24.742;2023-05-07T04:29:04;14.40;77.80
79760;DHT22;69248;42.138;24.742;2023-05-07T04:31:32;14.60;77.30
79760;DHT22;69248;42.138;24.742;2023-05-07T04:33:59;14.70;76.50
79760;DHT22;69248;42.138;24.742;2023-05-07T04:36:28;14.70;75.80
79760;DHT22;69248;42.138;24.742;2023-05-07T04:38:56;14.70;75.80
79760;DHT22;69248;42.138;24.742;2023-05-07T04:41:23;14.70;76.10
79760;DHT22;69248;42.138;24.742;2023-05-07T04:43:51;14.70;75.60
79760;DHT22;69248;42.138;24.742;2023-05-07T04:46:18;14.80;75.40
79760;DHT22;69248;42.138;24.742;2023-05-07T04:48:46;14.80;75.20
79760;DHT22;69248;42.138;24.742;2023-05-07T04:51:13;14.80;75.40
79760;DHT22;69248;42.138;24.742;2023-05-07T04:53:41;14.90;74.80
79760;DHT22;69248;42.138;24.742;2023-05-07T04:56:09;15.00;74.90
79760;DHT22;69248;42.138;24.742;2023-05-07T04:58:37;15.10;74.20
79760;DHT22;69248;42.138;24.742;2023-05-07T05:01:05;15.20;73.50
79760;DHT22;69248;42.138;24.742;2023-05-07T05:03:32;15.30;73.90
79760;DHT22;69248;42.138;24.742;2023-05-07T05:06:00;15.30;73.20
79760;DHT22;69248;42.138;24.742;2023-05-07T05:08:27;15.40;72.90
79760;DHT22;69248;42.138;24.742;2023-05-07T05:10:55;15.50;73.40
79760;DHT22;69248;42.138;24.742;2023-05-07T05:13:22;15.60;71.90
79760;DHT22;69248;42.138;24.742;2023-05-07T05:15:50;15.60;71.80
79760;DHT22;69248;42.138;24.742;2023-05-07T05:18:17;15.70;71.40
79760;DHT22;69248;42.138;24.742;2023-05-07T05:20:45;15.80;71.40
79760;DHT22;69248;42.138;24.742;2023-05-07T05:23:12;15.80;71.10
79760;DHT22;69248;42.138;24.742;2023-05-07T05:25:40;15.90;70.80
79760;DHT22;69248;42.138;24.742;2023-05-07T05:28:07;15.90;70.80
79760;DHT22;69248;42.138;24.742;2023-05-07T05:30:35;15.90;71.20
79760;DHT22;69248;42.138;24.742;2023-05-07T05:33:02;16.00;70.80
79760;DHT22;69248;42.138;24.742;2023-05-07T05:35:30;16.10;70.30
79760;DHT22;69248;42.138;24.742;2023-05-07T05:37:58;16.20;69.70
79760;DHT22;69248;42.138;24.742;2023-05-07T05:40:25;16.40;68.60
79760;DHT22;69248;42.138;24.742;2023-05-07T05:42:53;16.40;68.60
79760;DHT22;69248;42.138;24.742;2023-05-07T05:45:20;16.50;67.10
79760;DHT22;69248;42.138;24.742;2023-05-07T05:47:48;16.40;66.70
79760;DHT22;69248;42.138;24.742;2023-05-07T05:50:16;16.40;67.10
79760;DHT22;69248;42.138;24.742;2023-05-07T05:52:43;16.40;66.40
79760;DHT22;69248;42.138;24.742;2023-05-07T05:55:11;16.60;67.00
79760;DHT22;69248;42.138;24.742;2023-05-07T05:57:38;16.80;66.60
79760;DHT22;69248;42.138;24.742;2023-05-07T06:00:07;16.90;65.60
79760;DHT22;69248;42.138;24.742;2023-05-07T06:02:35;17.00;64.90
79760;DHT22;69248;42.138;24.742;2023-05-07T06:05:04;17.20;63.90
79760;DHT22;69248;42.138;24.742;2023-05-07T06:07:31;17.20;62.90
79760;DHT22;69248;42.138;24.742;2023-05-07T06:09:59;17.20;62.40
79760;DHT22;69248;42.138;24.742;2023-05-07T06:12:26;17.40;62.30
79760;DHT22;69248;42.138;24.742;2023-05-07T06:14:54;17.60;62.00
79760;DHT22;69248;42.138;24.742;2023-05-07T06:17:21;17.70;61.30
79760;DHT22;69248;42.138;24.742;2023-05-07T06:19:49;17.90;60.30
79760;DHT22;69248;42.138;24.742;2023-05-07T06:22:16;18.00;59.90
79760;DHT22;69248;42.138;24.742;2023-05-07T06:24:44;18.10;59.70
79760;DHT22;69248;42.138;24.742;2023-05-07T06:27:12;18.30;58.60
79760;DHT22;69248;42.138;24.742;2023-05-07T06:29:40;18.40;58.60
79760;DHT22;69248;42.138;24.742;2023-05-07T06:32:11;18.50;58.50
79760;DHT22;69248;42.138;24.742;2023-05-07T06:34:40;18.70;58.20
79760;DHT22;69248;42.138;24.742;2023-05-07T06:37:07;18.80;58.50
79760;DHT22;69248;42.138;24.742;2023-05-07T06:39:35;19.00;57.50
79760;DHT22;69248;42.138;24.742;2023-05-07T06:42:03;19.00;57.30
79760;DHT22;69248;42.138;24.742;2023-05-07T06:44:31;19.10;56.80
79760;DHT22;69248;42.138;24.742;2023-05-07T06:46:59;19.20;56.30
79760;DHT22;69248;42.138;24.742;2023-05-07T06:49:26;19.30;55.80
79760;DHT22;69248;42.138;24.742;2023-05-07T06:51:54;19.40;55.50
79760;DHT22;69248;42.138;24.742;2023-05-07T06:54:22;19.50;55.30
79760;DHT22;69248;42.138;24.742;2023-05-07T06:56:50;19.60;54.90
79760;DHT22;69248;42.138;24.742;2023-05-07T06:59:17;19.70;54.80
79760;DHT22;69248;42.138;24.742;2023-05-07T07:01:45;19.70;54.50
79760;DHT22;69248;42.138;24.742;2023-05-07T07:04:13;19.70;54.60
79760;DHT22;69248;42.138;24.742;2023-05-07T07:06:41;19.70;54.60
79760;DHT22;69248;42.138;24.742;2023-05-07T07:09:08;19.80;54.40
79760;DHT22;69248;42.138;24.742;2023-05-07T07:11:36;19.90;54.50
79760;DHT22;69248;42.138;24.742;2023-05-07T07:14:04;20.00;54.20
79760;DHT22;69248;42.138;24.742;2023-05-07T07:16:32;20.10;54.10
79760;DHT22;69248;42.138;24.742;2023-05-07T07:18:59;20.10;53.80
79760;DHT22;69248;42.138;24.742;2023-05-07T07:21:27;20.20;53.60
79760;DHT22;69248;42.138;24.742;2023-05-07T07:23:54;20.40;53.60
79760;DHT22;69248;42.138;24.742;2023-05-07T07:26:22;20.50;53.10
79760;DHT22;69248;42.138;24.742;2023-05-07T07:28:50;20.60;52.60
79760;DHT22;69248;42.138;24.742;2023-05-07T07:31:17;20.60;52.60
79760;DHT22;69248;42.138;24.742;2023-05-07T07:33:45;20.70;52.10
79760;DHT22;69248;42.138;24.742;2023-05-07T07:36:12;20.70;51.80
79760;DHT22;69248;42.138;24.742;2023-05-07T07:38:40;20.70;52.00
79760;DHT22;69248;42.138;24.742;2023-05-07T07:41:10;20.70;52.00
79760;DHT22;69248;42.138;24.742;2023-05-07T07:43:37;20.80;52.00
79760;DHT22;69248;42.138;24.742;2023-05-07T07:46:05;20.90;51.60
79760;DHT22;69248;42.138;24.742;2023-05-07T07:48:33;20.80;51.40
79760;DHT22;69248;42.138;24.742;2023-05-07T07:51:00;20.80;51.90
79760;DHT22;69248;42.138;24.742;2023-05-07T07:53:28;20.60;52.00
79760;DHT22;69248;42.138;24.742;2023-05-07T07:55:56;20.50;52.30
79760;DHT22;69248;42.138;24.742;2023-05-07T07:58:24;20.50;52.40
79760;DHT22;69248;42.138;24.742;2023-05-07T08:00:52;20.60;52.20
79760;DHT22;69248;42.138;24.742;2023-05-07T08:03:22;20.70;52.50
79760;DHT22;69248;42.138;24.742;2023-05-07T08:05:49;20.70;51.90
79760;DHT22;69248;42.138;24.742;2023-05-07T08:08:17;20.80;51.70
79760;DHT22;69248;42.138;24.742;2023-05-07T08:10:45;21.10;51.60
79760;DHT22;69248;42.138;24.742;2023-05-07T08:13:12;21.30;51.50
79760;DHT22;69248;42.138;24.742;2023-05-07T08:15:40;21.40;51.50
79760;DHT22;69248;42.138;24.742;2023-05-07T08:18:07;21.60;50.80
79760;DHT22;69248;42.138;24.742;2023-05-07T08:20:35;21.60;50.70
79760;DHT22;69248;42.138;24.742;2023-05-07T08:23:05;21.70;50.30
79760;DHT22;69248;42.138;24.742;2023-05-07T08:25:34;21.80;50.50
79760;DHT22;69248;42.138;24.742;2023-05-07T08:28:02;22.00;49.00
79760;DHT22;69248;42.138;24.742;2023-05-07T08:30:29;22.20;48.00
79760;DHT22;69248;42.138;24.742;2023-05-07T08:32:57;22.30;47.80
79760;DHT22;69248;42.138;24.742;2023-05-07T08:35:24;22.30;47.80
79760;DHT22;69248;42.138;24.742;2023-05-07T08:37:53;22.30;47.90
79760;DHT22;69248;42.138;24.742;2023-05-07T08:40:25;22.40;47.20
79760;DHT22;69248;42.138;24.742;2023-05-07T08:42:54;22.50;46.80
79760;DHT22;69248;42.138;24.742;2023-05-07T08:45:22;22.50;46.80
79760;DHT22;69248;42.138;24.742;2023-05-07T08:47:55;22.60;46.80
79760;DHT22;69248;42.138;24.742;2023-05-07T08:50:23;22.80;46.80
79760;DHT22;69248;42.138;24.742;2023-05-07T08:52:51;23.00;46.20
79760;DHT22;69248;42.138;24.742;2023-05-07T08:55:19;23.20;45.80
79760;DHT22;69248;42.138;24.742;2023-05-07T08:57:47;23.10;45.40
79760;DHT22;69248;42.138;24.742;2023-05-07T09:00:15;23.20;45.70
79760;DHT22;69248;42.138;24.742;2023-05-07T09:02:43;23.20;45.00
79760;DHT22;69248;42.138;24.742;2023-05-07T09:05:10;23.20;43.90
79760;DHT22;69248;42.138;24.742;2023-05-07T09:07:38;23.30;43.80
79760;DHT22;69248;42.138;24.742;2023-05-07T09:10:06;23.40;44.20
79760;DHT22;69248;42.138;24.742;2023-05-07T09:12:34;23.40;41.60
79760;DHT22;69248;42.138;24.742;2023-05-07T09:15:06;23.50;41.80
79760;DHT22;69248;42.138;24.742;2023-05-07T09:17:34;23.40;41.00
79760;DHT22;69248;42.138;24.742;2023-05-07T09:20:05;23.50;41.10
79760;DHT22;69248;42.138;24.742;2023-05-07T09:22:32;23.50;39.60
79760;DHT22;69248;42.138;24.742;2023-05-07T09:25:00;23.70;39.40
79760;DHT22;69248;42.138;24.742;2023-05-07T09:27:27;23.70;38.90
79760;DHT22;69248;42.138;24.742;2023-05-07T09:29:55;23.90;38.60
79760;DHT22;69248;42.138;24.742;2023-05-07T09:32:23;23.90;37.90
79760;DHT22;69248;42.138;24.742;2023-05-07T09:34:53;23.90;36.40
79760;DHT22;69248;42.138;24.742;2023-05-07T09:37:28;23.70;36.40
79760;DHT22;69248;42.138;24.742;2023-05-07T09:39:56;23.60;37.30
79760;DHT22;69248;42.138;24.742;2023-05-07T09:42:24;23.60;37.70
79760;DHT22;69248;42.138;24.742;2023-05-07T09:44:53;23.50;37.90
79760;DHT22;69248;42.138;24.742;2023-05-07T09:47:23;23.60;38.30
79760;DHT22;69248;42.138;24.742;2023-05-07T09:49:55;23.80;37.20
79760;DHT22;69248;42.138;24.742;2023-05-07T09:52:22;24.00;37.40
79760;DHT22;69248;42.138;24.742;2023-05-07T09:54:52;24.00;37.70
79760;DHT22;69248;42.138;24.742;2023-05-07T09:57:22;24.00;37.80
79760;DHT22;69248;42.138;24.742;2023-05-07T09:59:51;24.00;37.60
79760;DHT22;69248;42.138;24.742;2023-05-07T10:02:19;24.10;37.40
79760;DHT22;69248;42.138;24.742;2023-05-07T10:04:48;24.20;37.20
79760;DHT22;69248;42.138;24.742;2023-05-07T10:07:16;24.20;37.70
79760;DHT22;69248;42.138;24.742;2023-05-07T10:09:45;24.00;37.80
79760;DHT22;69248;42.138;24.742;2023-05-07T10:12:13;23.90;38.30
79760;DHT22;69248;42.138;24.742;2023-05-07T10:14:43;24.00;38.10
79760;DHT22;69248;42.138;24.742;2023-05-07T10:17:12;23.90;38.00
79760;DHT22;69248;42.138;24.742;2023-05-07T10:19:41;24.00;37.70
79760;DHT22;69248;42.138;24.742;2023-05-07T10:22:09;24.10;37.00
79760;DHT22;69248;42.138;24.742;2023-05-07T10:24:38;24.20;36.70
79760;DHT22;69248;42.138;24.742;2023-05-07T10:27:08;24.30;36.70
79760;DHT22;69248;42.138;24.742;2023-05-07T10:32:48;24.40;36.90
79760;DHT22;69248;42.138;24.742;2023-05-07T10:35:24;24.40;37.00
79760;DHT22;69248;42.138;24.742;2023-05-07T10:37:49;24.50;36.80
79760;DHT22;69248;42.138;24.742;2023-05-07T10:40:16;24.70;36.80
79760;DHT22;69248;42.138;24.742;2023-05-07T10:42:58;24.80;36.20
79760;DHT22;69248;42.138;24.742;2023-05-07T10:45:29;24.90;35.60
79760;DHT22;69248;42.138;24.742;2023-05-07T10:48:10;24.90;34.40
79760;DHT22;69248;42.138;24.742;2023-05-07T10:50:44;24.70;34.20
79760;DHT22;69248;42.138;24.742;2023-05-07T10:55:50;24.80;33.90
79760;DHT22;69248;42.138;24.742;2023-05-07T10:58:26;24.80;34.00
79760;DHT22;69248;42.138;24.742;2023-05-07T11:00:58;24.90;33.70
79760;DHT22;69248;42.138;24.742;2023-05-07T11:03:27;25.10;33.40
79760;DHT22;69248;42.138;24.742;2023-05-07T11:06:14;25.20;33.60
79760;DHT22;69248;42.138;24.742;2023-05-07T11:11:47;25.60;33.80
79760;DHT22;69248;42.138;24.742;2023-05-07T11:17:11;25.90;33.00
79760;DHT22;69248;42.138;24.742;2023-05-07T11:19:50;26.20;32.50
79760;DHT22;69248;42.138;24.742;2023-05-07T11:25:06;26.50;30.90
79760;DHT22;69248;42.138;24.742;2023-05-07T11:27:34;26.40;30.70
79760;DHT22;69248;42.138;24.742;2023-05-07T11:30:02;26.40;30.60
79760;DHT22;69248;42.138;24.742;2023-05-07T11:32:31;26.50;30.90
79760;DHT22;69248;42.138;24.742;2023-05-07T11:35:00;26.60;31.20
79760;DHT22;69248;42.138;24.742;2023-05-07T11:37:28;26.80;30.20
79760;DHT22;69248;42.138;24.742;2023-05-07T11:40:07;27.00;29.50
79760;DHT22;69248;42.138;24.742;2023-05-07T11:42:38;27.20;29.70
79760;DHT22;69248;42.138;24.742;2023-05-07T11:45:07;27.50;29.20
79760;DHT22;69248;42.138;24.742;2023-05-07T11:47:35;27.70;28.90
79760;DHT22;69248;42.138;24.742;2023-05-07T11:50:09;28.10;29.00
79760;DHT22;69248;42.138;24.742;2023-05-07T11:52:33;28.50;27.90
79760;DHT22;69248;42.138;24.742;2023-05-07T11:55:02;28.90;27.80
79760;DHT22;69248;42.138;24.742;2023-05-07T11:57:33;29.10;27.50
79760;DHT22;69248;42.138;24.742;2023-05-07T12:00:02;29.20;27.50
79760;DHT22;69248;42.138;24.742;2023-05-07T12:02:31;29.50;27.10
79760;DHT22;69248;42.138;24.742;2023-05-07T12:05:00;29.60;26.80
79760;DHT22;69248;42.138;24.742;2023-05-07T12:07:29;29.70;26.20
79760;DHT22;69248;42.138;24.742;2023-05-07T12:09:58;29.50;26.40
79760;DHT22;69248;42.138;24.742;2023-05-07T12:12:25;29.70;26.90
79760;DHT22;69248;42.138;24.742;2023-05-07T12:14:53;29.60;26.80
79760;DHT22;69248;42.138;24.742;2023-05-07T12:17:21;29.70;27.00
79760;DHT22;69248;42.138;24.742;2023-05-07T12:19:49;30.20;26.70
79760;DHT22;69248;42.138;24.742;2023-05-07T12:22:17;30.90;26.10
79760;DHT22;69248;42.138;24.742;2023-05-07T12:24:57;31.50;25.00
79760;DHT22;69248;42.138;24.742;2023-05-07T12:27:16;32.00;24.80
79760;DHT22;69248;42.138;24.742;2023-05-07T12:29:46;32.50;24.20
79760;DHT22;69248;42.138;24.742;2023-05-07T12:32:18;32.90;23.90
79760;DHT22;69248;42.138;24.742;2023-05-07T12:34:49;33.00;23.10
79760;DHT22;69248;42.138;24.742;2023-05-07T12:37:16;33.50;23.10
79760;DHT22;69248;42.138;24.742;2023-05-07T12:40:03;33.60;22.40
79760;DHT22;69248;42.138;24.742;2023-05-07T12:42:22;33.50;22.60
79760;DHT22;69248;42.138;24.742;2023-05-07T12:44:51;33.50;22.60
79760;DHT22;69248;42.138;24.742;2023-05-07T12:47:19;33.60;22.40
79760;DHT22;69248;42.138;24.742;2023-05-07T12:49:47;33.90;22.10
79760;DHT22;69248;42.138;24.742;2023-05-07T12:52:15;34.30;21.70
79760;DHT22;69248;42.138;24.742;2023-05-07T12:54:44;35.10;21.10
79760;DHT22;69248;42.138;24.742;2023-05-07T12:57:12;36.70;19.70
79760;DHT22;69248;42.138;24.742;2023-05-07T12:59:40;38.90;18.30
79760;DHT22;69248;42.138;24.742;2023-05-07T13:02:09;41.00;16.60
79760;DHT22;69248;42.138;24.742;2023-05-07T13:04:36;42.20;15.50
79760;DHT22;69248;42.138;24.742;2023-05-07T13:07:04;43.40;14.80
79760;DHT22;69248;42.138;24.742;2023-05-07T13:09:31;45.10;13.80
79760;DHT22;69248;42.138;24.742;2023-05-07T13:11:59;46.50;12.80
79760;DHT22;69248;42.138;24.742;2023-05-07T13:14:29;48.20;11.90
79760;DHT22;69248;42.138;24.742;2023-05-07T13:16:57;49.20;11.60
79760;DHT22;69248;42.138;24.742;2023-05-07T13:19:24;50.40;11.20
79760;DHT22;69248;42.138;24.742;2023-05-07T13:21:52;51.70;10.60
79760;DHT22;69248;42.138;24.742;2023-05-07T13:24:20;52.70;10.00
79760;DHT22;69248;42.138;24.742;2023-05-07T13:26:48;53.20;9.80
79760;DHT22;69248;42.138;24.742;2023-05-07T13:29:16;52.90;9.80
79760;DHT22;69248;42.138;24.742;2023-05-07T13:31:43;52.60;10.10
79760;DHT22;69248;42.138;24.742;2023-05-07T13:34:11;52.70;9.90
79760;DHT22;69248;42.138;24.742;2023-05-07T13:36:38;53.20;9.60
79760;DHT22;69248;42.138;24.742;2023-05-07T13:39:08;53.30;9.50
79760;DHT22;69248;42.138;24.742;2023-05-07T13:41:36;53.30;9.40
79760;DHT22;69248;42.138;24.742;2023-05-07T13:44:03;53.20;9.50
79760;DHT22;69248;42.138;24.742;2023-05-07T13:46:31;52.70;9.40
79760;DHT22;69248;42.138;24.742;2023-05-07T13:48:59;52.70;9.60
79760;DHT22;69248;42.138;24.742;2023-05-07T13:51:26;52.60;9.40
79760;DHT22;69248;42.138;24.742;2023-05-07T13:53:54;53.00;9.50
79760;DHT22;69248;42.138;24.742;2023-05-07T13:56:21;53.20;9.20
79760;DHT22;69248;42.138;24.742;2023-05-07T13:58:49;53.20;9.20
79760;DHT22;69248;42.138;24.742;2023-05-07T14:01:17;52.70;9.30
79760;DHT22;69248;42.138;24.742;2023-05-07T14:03:44;52.30;9.30
79760;DHT22;69248;42.138;24.742;2023-05-07T14:06:12;52.30;9.50
79760;DHT22;69248;42.138;24.742;2023-05-07T14:08:39;52.50;9.50
79760;DHT22;69248;42.138;24.742;2023-05-07T14:11:07;52.50;9.50
79760;DHT22;69248;42.138;24.742;2023-05-07T14:13:35;52.70;9.50
79760;DHT22;69248;42.138;24.742;2023-05-07T14:16:04;52.70;9.30
79760;DHT22;69248;42.138;24.742;2023-05-07T14:18:31;52.70;9.30
79760;DHT22;69248;42.138;24.742;2023-05-07T14:21:00;52.70;9.40
79760;DHT22;69248;42.138;24.742;2023-05-07T14:23:27;52.60;9.20
79760;DHT22;69248;42.138;24.742;2023-05-07T14:25:55;52.30;9.30
79760;DHT22;69248;42.138;24.742;2023-05-07T14:28:24;52.00;9.30
79760;DHT22;69248;42.138;24.742;2023-05-07T14:30:51;51.80;9.60
79760;DHT22;69248;42.138;24.742;2023-05-07T14:33:19;51.50;9.40
79760;DHT22;69248;42.138;24.742;2023-05-07T14:35:46;50.90;9.60
79760;DHT22;69248;42.138;24.742;2023-05-07T14:38:15;50.30;9.70
79760;DHT22;69248;42.138;24.742;2023-05-07T14:40:42;49.70;10.00
79760;DHT22;69248;42.138;24.742;2023-05-07T14:43:10;49.40;10.20
79760;DHT22;69248;42.138;24.742;2023-05-07T14:45:37;49.70;10.40
79760;DHT22;69248;42.138;24.742;2023-05-07T14:48:05;49.70;10.20
79760;DHT22;69248;42.138;24.742;2023-05-07T14:50:33;49.60;10.20
79760;DHT22;69248;42.138;24.742;2023-05-07T14:53:00;49.30;10.30
79760;DHT22;69248;42.138;24.742;2023-05-07T14:55:28;49.20;10.20
79760;DHT22;69248;42.138;24.742;2023-05-07T14:57:56;48.90;10.40
79760;DHT22;69248;42.138;24.742;2023-05-07T15:00:23;48.80;10.50
79760;DHT22;69248;42.138;24.742;2023-05-07T15:02:51;48.60;10.70
79760;DHT22;69248;42.138;24.742;2023-05-07T15:05:18;47.90;11.00
79760;DHT22;69248;42.138;24.742;2023-05-07T15:07:46;47.70;11.00
79760;DHT22;69248;42.138;24.742;2023-05-07T15:10:13;47.60;11.20
79760;DHT22;69248;42.138;24.742;2023-05-07T15:12:41;47.50;11.00
79760;DHT22;69248;42.138;24.742;2023-05-07T15:15:09;47.80;11.10
79760;DHT22;69248;42.138;24.742;2023-05-07T15:17:37;48.00;10.80
79760;DHT22;69248;42.138;24.742;2023-05-07T15:20:05;47.90;10.90
79760;DHT22;69248;42.138;24.742;2023-05-07T15:22:33;47.80;10.80
79760;DHT22;69248;42.138;24.742;2023-05-07T15:25:01;47.70;10.80
79760;DHT22;69248;42.138;24.742;2023-05-07T15:27:29;47.50;11.10
79760;DHT22;69248;42.138;24.742;2023-05-07T15:29:57;47.20;11.20
79760;DHT22;69248;42.138;24.742;2023-05-07T15:32:25;46.80;11.40
79760;DHT22;69248;42.138;24.742;2023-05-07T15:34:54;45.60;11.90
79760;DHT22;69248;42.138;24.742;2023-05-07T15:37:21;44.60;12.40